sensor_id;sensor_type;location;lat;lon;timestamp;temperature;humidity
19941;DHT22;10132;50.864;5.176;2023-04-30T00:00:37;10.00;99.90
19941;DHT22;10132;50.864;5.176;2023-04-30T00:02:40;10.00;99.90
19941;DHT22;10132;50.864;5.176;2023-04-30T00:04:43;9.80;99.90
19941;DHT22;10132;50.864;5.176;2023-04-30T00:06:45;9.70;99.90
19941;DHT22;10132;50.864;5.176;2023-04-30T00:08:47;9.50;99.90
19941;DHT22;10132;50.864;5.176;2023-04-30T00:10:50;9.40;99.90
19941;DHT22;10132;50.864;5.176;2023-04-30T00:12:52;9.20;99.90
19941;DHT22;10132;50.864;5.176;2023-04-30T00:14:57;9.10;99.90
19941;DHT22;10132;50.864;5.176;2023-04-30T00:17:01;8.80;99.90
19941;DHT22;10132;50.864;5.176;2023-04-30T00:19:04;8.80;99.90
19941;DHT22;10132;50.864;5.176;2023-04-30T00:21:08;8.70;99.90
19941;DHT22;10132;50.864;5.176;2023-04-30T00:23:10;8.60;99.90
19941;DHT22;10132;50.864;5.176;2023-04-30T00:25:12;8.60;99.90
19941;DHT22;10132;50.864;5.176;2023-04-30T00:27:15;8.60;99.90
19941;DHT22;10132;50.864;5.176;2023-04-30T00:29:18;8.50;99.90
19941;DHT22;10132;50.864;5.176;2023-04-30T00:31:20;8.50;99.90
19941;DHT22;10132;50.864;5.176;2023-04-30T00:33:22;8.50;99.90
19941;DHT22;10132;50.864;5.176;2023-04-30T00:35:26;8.40;99.90
19941;DHT22;10132;50.864;5.176;2023-04-30T00:37:28;8.40;99.90
19941;DHT22;10132;50.864;5.176;2023-04-30T00:39:30;8.30;99.90
19941;DHT22;10132;50.864;5.176;2023-04-30T00:41:34;8.30;99.90
19941;DHT22;10132;50.864;5.176;2023-04-30T00:43:36;8.40;99.90
19941;DHT22;10132;50.864;5.176;2023-04-30T00:45:38;8.50;99.90
19941;DHT22;10132;50.864;5.176;2023-04-30T00:47:41;8.50;99.90
19941;DHT22;10132;50.864;5.176;2023-04-30T00:49:43;8.40;99.90
19941;DHT22;10132;50.864;5.176;2023-04-30T00:51:47;8.30;99.90
19941;DHT22;10132;50.864;5.176;2023-04-30T00:53:51;8.10;99.90
19941;DHT22;10132;50.864;5.176;2023-04-30T00:55:54;8.10;99.90
19941;DHT22;10132;50.864;5.176;2023-04-30T00:57:58;8.00;99.90
19941;DHT22;10132;50.864;5.176;2023-04-30T01:00:01;8.00;99.90
19941;DHT22;10132;50.864;5.176;2023-04-30T01:02:03;8.20;99.90
19941;DHT22;10132;50.864;5.176;2023-04-30T01:04:05;8.30;99.90
19941;DHT22;10132;50.864;5.176;2023-04-30T01:06:08;8.20;99.90
19941;DHT22;10132;50.864;5.176;2023-04-30T01:08:11;8.20;99.90
19941;DHT22;10132;50.864;5.176;2023-04-30T01:10:14;8.20;99.90
19941;DHT22;10132;50.864;5.176;2023-04-30T01:12:20;8.10;99.90
19941;DHT22;10132;50.864;5.176;2023-04-30T01:14:28;8.00;99.90
19941;DHT22;10132;50.864;5.176;2023-04-30T01:16:35;7.90;99.90
19941;DHT22;10132;50.864;5.176;2023-04-30T01:18:43;7.90;99.90
19941;DHT22;10132;50.864;5.176;2023-04-30T01:20:49;7.90;99.90
19941;DHT22;10132;50.864;5.176;2023-04-30T01:23:01;7.90;99.90
19941;DHT22;10132;50.864;5.176;2023-04-30T01:25:33;7.80;99.90
19941;DHT22;10132;50.864;5.176;2023-04-30T01:27:57;7.70;99.90
19941;DHT22;10132;50.864;5.176;2023-04-30T01:30:03;7.70;99.90
19941;DHT22;10132;50.864;5.176;2023-04-30T01:32:06;7.70;99.90
19941;DHT22;10132;50.864;5.176;2023-04-30T01:34:08;7.70;99.90
19941;DHT22;10132;50.864;5.176;2023-04-30T01:36:34;7.70;99.90
19941;DHT22;10132;50.864;5.176;2023-04-30T01:38:59;7.80;99.90
19941;DHT22;10132;50.864;5.176;2023-04-30T01:41:08;7.90;99.90
19941;DHT22;10132;50.864;5.176;2023-04-30T01:43:19;8.00;99.90
19941;DHT22;10132;50.864;5.176;2023-04-30T01:45:38;8.10;99.90
19941;DHT22;10132;50.864;5.176;2023-04-30T01:47:49;8.20;99.90
19941;DHT22;10132;50.864;5.176;2023-04-30T01:50:00;8.20;99.90
19941;DHT22;10132;50.864;5.176;2023-04-30T01:52:11;8.20;99.90
19941;DHT22;10132;50.864;5.176;2023-04-30T01:54:20;8.30;99.90
19941;DHT22;10132;50.864;5.176;2023-04-30T01:56:28;8.20;99.90
19941;DHT22;10132;50.864;5.176;2023-04-30T01:58:33;8.10;99.90
19941;DHT22;10132;50.864;5.176;2023-04-30T02:00:36;8.10;99.90
19941;DHT22;10132;50.864;5.176;2023-04-30T02:02:39;8.10;99.90
19941;DHT22;10132;50.864;5.176;2023-04-30T02:04:42;8.10;99.90
19941;DHT22;10132;50.864;5.176;2023-04-30T02:06:44;8.00;99.90
19941;DHT22;10132;50.864;5.176;2023-04-30T02:08:47;8.00;99.90
19941;DHT22;10132;50.864;5.176;2023-04-30T02:10:50;8.00;99.90
19941;DHT22;10132;50.864;5.176;2023-04-30T02:12:53;7.80;99.90
19941;DHT22;10132;50.864;5.176;2023-04-30T02:14:59;7.80;99.90
19941;DHT22;10132;50.864;5.176;2023-04-30T02:17:01;7.80;99.90
19941;DHT22;10132;50.864;5.176;2023-04-30T02:19:04;7.70;99.90
19941;DHT22;10132;50.864;5.176;2023-04-30T02:21:06;7.60;99.90
19941;DHT22;10132;50.864;5.176;2023-04-30T02:23:09;7.50;99.90
19941;DHT22;10132;50.864;5.176;2023-04-30T02:25:11;7.50;99.90
19941;DHT22;10132;50.864;5.176;2023-04-30T02:27:13;7.40;99.90
19941;DHT22;10132;50.864;5.176;2023-04-30T02:29:16;7.40;99.90
19941;DHT22;10132;50.864;5.176;2023-04-30T02:31:20;7.40;99.90
19941;DHT22;10132;50.864;5.176;2023-04-30T02:33:22;7.50;99.90
19941;DHT22;10132;50.864;5.176;2023-04-30T02:35:25;7.50;99.90
19941;DHT22;10132;50.864;5.176;2023-04-30T02:37:28;7.40;99.90
19941;DHT22;10132;50.864;5.176;2023-04-30T02:39:30;7.40;99.90
19941;DHT22;10132;50.864;5.176;2023-04-30T02:41:32;7.40;99.90
19941;DHT22;10132;50.864;5.176;2023-04-30T02:43:36;7.30;99.90
19941;DHT22;10132;50.864;5.176;2023-04-30T02:45:38;7.30;99.90
19941;DHT22;10132;50.864;5.176;2023-04-30T02:47:42;7.40;99.90
19941;DHT22;10132;50.864;5.176;2023-04-30T02:49:44;7.40;99.90
19941;DHT22;10132;50.864;5.176;2023-04-30T02:51:46;7.40;99.90
19941;DHT22;10132;50.864;5.176;2023-04-30T02:53:50;7.50;99.90
19941;DHT22;10132;50.864;5.176;2023-04-30T02:55:52;7.50;99.90
19941;DHT22;10132;50.864;5.176;2023-04-30T02:57:55;7.50;99.90
19941;DHT22;10132;50.864;5.176;2023-04-30T02:59:57;7.50;99.90
19941;DHT22;10132;50.864;5.176;2023-04-30T03:01:59;7.50;99.90
19941;DHT22;10132;50.864;5.176;2023-04-30T03:04:03;7.40;99.90
19941;DHT22;10132;50.864;5.176;2023-04-30T03:06:07;7.40;99.90
19941;DHT22;10132;50.864;5.176;2023-04-30T03:08:09;7.40;99.90
19941;DHT22;10132;50.864;5.176;2023-04-30T03:10:12;7.50;99.90
19941;DHT22;10132;50.864;5.176;2023-04-30T03:12:15;7.50;99.90
19941;DHT22;10132;50.864;5.176;2023-04-30T03:14:17;7.60;99.90
19941;DHT22;10132;50.864;5.176;2023-04-30T03:16:20;7.60;99.90
19941;DHT22;10132;50.864;5.176;2023-04-30T03:18:22;7.60;99.90
19941;DHT22;10132;50.864;5.176;2023-04-30T03:20:25;7.60;99.90
19941;DHT22;10132;50.864;5.176;2023-04-30T03:22:28;7.60;99.90
19941;DHT22;10132;50.864;5.176;2023-04-30T03:24:30;7.50;99.90
19941;DHT22;10132;50.864;5.176;2023-04-30T03:26:33;7.50;99.90
19941;DHT22;10132;50.864;5.176;2023-04-30T03:28:36;7.50;99.90
19941;DHT22;10132;50.864;5.176;2023-04-30T03:30:38;7.50;99.90
19941;DHT22;10132;50.864;5.176;2023-04-30T03:32:41;7.40;99.90
19941;DHT22;10132;50.864;5.176;2023-04-30T03:34:43;7.20;99.90
19941;DHT22;10132;50.864;5.176;2023-04-30T03:36:47;7.10;99.90
19941;DHT22;10132;50.864;5.176;2023-04-30T03:38:49;7.00;99.90
19941;DHT22;10132;50.864;5.176;2023-04-30T03:40:52;6.80;99.90
19941;DHT22;10132;50.864;5.176;2023-04-30T03:42:54;6.70;99.90
19941;DHT22;10132;50.864;5.176;2023-04-30T03:44:57;6.70;99.90
19941;DHT22;10132;50.864;5.176;2023-04-30T03:46:59;6.70;99.90
19941;DHT22;10132;50.864;5.176;2023-04-30T03:49:01;6.60;99.90
19941;DHT22;10132;50.864;5.176;2023-04-30T03:51:03;6.50;99.90
19941;DHT22;10132;50.864;5.176;2023-04-30T03:53:07;6.50;99.90
19941;DHT22;10132;50.864;5.176;2023-04-30T03:55:09;6.40;99.90
19941;DHT22;10132;50.864;5.176;2023-04-30T03:57:12;6.40;99.90
19941;DHT22;10132;50.864;5.176;2023-04-30T03:59:14;6.40;99.90
19941;DHT22;10132;50.864;5.176;2023-04-30T04:01:17;6.40;99.90
19941;DHT22;10132;50.864;5.176;2023-04-30T04:03:19;6.40;99.90
19941;DHT22;10132;50.864;5.176;2023-04-30T04:05:21;6.30;99.90
19941;DHT22;10132;50.864;5.176;2023-04-30T04:07:23;6.30;99.90
19941;DHT22;10132;50.864;5.176;2023-04-30T04:09:29;6.30;99.90
19941;DHT22;10132;50.864;5.176;2023-04-30T04:11:31;6.20;99.90
19941;DHT22;10132;50.864;5.176;2023-04-30T04:13:33;6.10;99.90
19941;DHT22;10132;50.864;5.176;2023-04-30T04:15:36;6.20;99.90
19941;DHT22;10132;50.864;5.176;2023-04-30T04:17:38;6.20;99.90
19941;DHT22;10132;50.864;5.176;2023-04-30T04:19:40;6.10;99.90
19941;DHT22;10132;50.864;5.176;2023-04-30T04:21:42;6.00;99.90
19941;DHT22;10132;50.864;5.176;2023-04-30T04:23:44;6.10;99.90
19941;DHT22;10132;50.864;5.176;2023-04-30T04:25:48;6.20;99.90
19941;DHT22;10132;50.864;5.176;2023-04-30T04:27:51;6.40;99.90
19941;DHT22;10132;50.864;5.176;2023-04-30T04:29:53;6.50;99.90
19941;DHT22;10132;50.864;5.176;2023-04-30T04:31:55;6.50;99.90
19941;DHT22;10132;50.864;5.176;2023-04-30T04:33:59;6.50;99.90
19941;DHT22;10132;50.864;5.176;2023-04-30T04:36:01;6.50;99.90
19941;DHT22;10132;50.864;5.176;2023-04-30T04:38:04;6.50;99.90
19941;DHT22;10132;50.864;5.176;2023-04-30T04:40:08;6.50;99.90
19941;DHT22;10132;50.864;5.176;2023-04-30T04:42:14;6.50;99.90
19941;DHT22;10132;50.864;5.176;2023-04-30T04:44:16;6.40;99.90
19941;DHT22;10132;50.864;5.176;2023-04-30T04:46:18;6.40;99.90
19941;DHT22;10132;50.864;5.176;2023-04-30T04:48:22;6.40;99.90
19941;DHT22;10132;50.864;5.176;2023-04-30T04:50:24;6.40;99.90
19941;DHT22;10132;50.864;5.176;2023-04-30T04:52:27;6.40;99.90
19941;DHT22;10132;50.864;5.176;2023-04-30T04:54:29;6.40;99.90
19941;DHT22;10132;50.864;5.176;2023-04-30T04:56:32;6.30;99.90
19941;DHT22;10132;50.864;5.176;2023-04-30T04:58:35;6.30;99.90
19941;DHT22;10132;50.864;5.176;2023-04-30T05:00:38;6.30;99.90
19941;DHT22;10132;50.864;5.176;2023-04-30T05:02:40;6.30;99.90
19941;DHT22;10132;50.864;5.176;2023-04-30T05:04:42;6.30;99.90
19941;DHT22;10132;50.864;5.176;2023-04-30T05:06:46;6.40;99.90
19941;DHT22;10132;50.864;5.176;2023-04-30T05:08:48;6.60;99.90
19941;DHT22;10132;50.864;5.176;2023-04-30T05:10:50;6.80;99.90
19941;DHT22;10132;50.864;5.176;2023-04-30T05:12:53;6.90;99.90
19941;DHT22;10132;50.864;5.176;2023-04-30T05:14:56;7.00;99.90
19941;DHT22;10132;50.864;5.176;2023-04-30T05:16:58;7.10;99.90
19941;DHT22;10132;50.864;5.176;2023-04-30T05:19:01;7.20;99.90
19941;DHT22;10132;50.864;5.176;2023-04-30T05:21:04;7.40;99.90
19941;DHT22;10132;50.864;5.176;2023-04-30T05:23:07;7.40;99.90
19941;DHT22;10132;50.864;5.176;2023-04-30T05:25:10;7.50;99.90
19941;DHT22;10132;50.864;5.176;2023-04-30T05:27:12;7.50;99.90
19941;DHT22;10132;50.864;5.176;2023-04-30T05:29:14;7.70;99.90
19941;DHT22;10132;50.864;5.176;2023-04-30T05:31:18;7.80;99.90
19941;DHT22;10132;50.864;5.176;2023-04-30T05:33:20;7.90;99.90
19941;DHT22;10132;50.864;5.176;2023-04-30T05:35:22;8.00;99.90
19941;DHT22;10132;50.864;5.176;2023-04-30T05:37:25;8.10;99.90
19941;DHT22;10132;50.864;5.176;2023-04-30T05:39:27;8.10;99.90
19941;DHT22;10132;50.864;5.176;2023-04-30T05:41:30;8.10;99.90
19941;DHT22;10132;50.864;5.176;2023-04-30T05:43:32;8.20;99.90
19941;DHT22;10132;50.864;5.176;2023-04-30T05:45:34;8.30;99.90
19941;DHT22;10132;50.864;5.176;2023-04-30T05:47:38;8.40;99.90
19941;DHT22;10132;50.864;5.176;2023-04-30T05:49:40;8.60;99.90
19941;DHT22;10132;50.864;5.176;2023-04-30T05:51:42;8.70;99.90
19941;DHT22;10132;50.864;5.176;2023-04-30T05:53:44;8.80;99.90
19941;DHT22;10132;50.864;5.176;2023-04-30T05:55:46;9.00;99.90
19941;DHT22;10132;50.864;5.176;2023-04-30T05:57:48;9.10;99.90
19941;DHT22;10132;50.864;5.176;2023-04-30T05:59:51;9.00;99.90
19941;DHT22;10132;50.864;5.176;2023-04-30T06:01:54;9.10;99.90
19941;DHT22;10132;50.864;5.176;2023-04-30T06:03:58;9.20;99.90
19941;DHT22;10132;50.864;5.176;2023-04-30T06:06:00;9.30;99.90
19941;DHT22;10132;50.864;5.176;2023-04-30T06:08:03;9.40;99.90
19941;DHT22;10132;50.864;5.176;2023-04-30T06:10:06;9.50;99.90
19941;DHT22;10132;50.864;5.176;2023-04-30T06:12:09;9.60;99.90
19941;DHT22;10132;50.864;5.176;2023-04-30T06:14:12;9.70;99.90
19941;DHT22;10132;50.864;5.176;2023-04-30T06:16:14;9.90;99.90
19941;DHT22;10132;50.864;5.176;2023-04-30T06:18:16;10.00;99.90
19941;DHT22;10132;50.864;5.176;2023-04-30T06:20:19;10.10;99.90
19941;DHT22;10132;50.864;5.176;2023-04-30T06:22:22;10.20;99.90
19941;DHT22;10132;50.864;5.176;2023-04-30T06:24:24;10.30;99.90
19941;DHT22;10132;50.864;5.176;2023-04-30T06:26:27;10.40;99.90
19941;DHT22;10132;50.864;5.176;2023-04-30T06:28:29;10.60;99.90
19941;DHT22;10132;50.864;5.176;2023-04-30T06:30:31;10.70;99.90
19941;DHT22;10132;50.864;5.176;2023-04-30T06:32:34;10.80;99.90
19941;DHT22;10132;50.864;5.176;2023-04-30T06:34:37;10.90;99.90
19941;DHT22;10132;50.864;5.176;2023-04-30T06:36:40;11.00;99.90
19941;DHT22;10132;50.864;5.176;2023-04-30T06:38:42;11.10;99.90
19941;DHT22;10132;50.864;5.176;2023-04-30T06:40:46;11.20;99.90
19941;DHT22;10132;50.864;5.176;2023-04-30T06:42:49;11.30;99.90
19941;DHT22;10132;50.864;5.176;2023-04-30T06:44:51;11.20;99.90
19941;DHT22;10132;50.864;5.176;2023-04-30T06:46:56;11.20;99.90
19941;DHT22;10132;50.864;5.176;2023-04-30T06:48:59;11.30;99.90
19941;DHT22;10132;50.864;5.176;2023-04-30T06:51:01;11.40;99.90
19941;DHT22;10132;50.864;5.176;2023-04-30T06:53:05;11.50;99.90
19941;DHT22;10132;50.864;5.176;2023-04-30T06:55:08;11.60;99.90
19941;DHT22;10132;50.864;5.176;2023-04-30T06:57:11;11.80;99.90
19941;DHT22;10132;50.864;5.176;2023-04-30T06:59:13;11.90;99.90
19941;DHT22;10132;50.864;5.176;2023-04-30T07:01:16;12.00;99.90
19941;DHT22;10132;50.864;5.176;2023-04-30T07:03:18;12.10;99.90
19941;DHT22;10132;50.864;5.176;2023-04-30T07:05:21;12.10;99.90
19941;DHT22;10132;50.864;5.176;2023-04-30T07:07:23;12.20;99.90
19941;DHT22;10132;50.864;5.176;2023-04-30T07:09:26;12.30;99.90
19941;DHT22;10132;50.864;5.176;2023-04-30T07:11:29;12.30;99.90
19941;DHT22;10132;50.864;5.176;2023-04-30T07:13:31;12.40;99.90
19941;DHT22;10132;50.864;5.176;2023-04-30T07:15:34;12.60;99.90
19941;DHT22;10132;50.864;5.176;2023-04-30T07:17:36;12.60;99.90
19941;DHT22;10132;50.864;5.176;2023-04-30T07:19:40;12.60;99.90
19941;DHT22;10132;50.864;5.176;2023-04-30T07:21:42;12.70;99.90
19941;DHT22;10132;50.864;5.176;2023-04-30T07:23:44;12.90;99.90
19941;DHT22;10132;50.864;5.176;2023-04-30T07:25:49;13.10;99.90
19941;DHT22;10132;50.864;5.176;2023-04-30T07:27:51;13.30;99.90
19941;DHT22;10132;50.864;5.176;2023-04-30T07:29:54;13.60;99.90
19941;DHT22;10132;50.864;5.176;2023-04-30T07:31:56;13.70;99.90
19941;DHT22;10132;50.864;5.176;2023-04-30T07:33:58;13.80;99.90
19941;DHT22;10132;50.864;5.176;2023-04-30T07:36:00;13.90;99.90
19941;DHT22;10132;50.864;5.176;2023-04-30T07:38:06;13.90;99.90
19941;DHT22;10132;50.864;5.176;2023-04-30T07:40:10;13.90;99.90
19941;DHT22;10132;50.864;5.176;2023-04-30T07:42:15;13.90;99.90
19941;DHT22;10132;50.864;5.176;2023-04-30T07:44:17;13.90;99.90
19941;DHT22;10132;50.864;5.176;2023-04-30T07:46:19;13.80;99.90
19941;DHT22;10132;50.864;5.176;2023-04-30T07:48:21;13.90;99.90
19941;DHT22;10132;50.864;5.176;2023-04-30T07:50:24;13.90;99.90
19941;DHT22;10132;50.864;5.176;2023-04-30T07:52:28;14.10;99.90
19941;DHT22;10132;50.864;5.176;2023-04-30T07:54:30;14.30;99.90
19941;DHT22;10132;50.864;5.176;2023-04-30T07:56:36;14.30;99.90
19941;DHT22;10132;50.864;5.176;2023-04-30T07:58:39;14.20;99.90
19941;DHT22;10132;50.864;5.176;2023-04-30T08:00:42;14.20;99.90
19941;DHT22;10132;50.864;5.176;2023-04-30T08:02:44;14.30;99.90
19941;DHT22;10132;50.864;5.176;2023-04-30T08:04:47;14.50;99.90
19941;DHT22;10132;50.864;5.176;2023-04-30T08:06:50;14.70;99.90
19941;DHT22;10132;50.864;5.176;2023-04-30T08:08:52;14.90;99.90
19941;DHT22;10132;50.864;5.176;2023-04-30T08:10:54;15.10;99.90
19941;DHT22;10132;50.864;5.176;2023-04-30T08:12:56;15.30;99.90
19941;DHT22;10132;50.864;5.176;2023-04-30T08:15:01;15.20;99.90
19941;DHT22;10132;50.864;5.176;2023-04-30T08:17:04;15.10;99.90
19941;DHT22;10132;50.864;5.176;2023-04-30T08:19:06;15.10;99.90
19941;DHT22;10132;50.864;5.176;2023-04-30T08:21:09;15.30;99.90
19941;DHT22;10132;50.864;5.176;2023-04-30T08:23:11;15.40;99.90
19941;DHT22;10132;50.864;5.176;2023-04-30T08:25:13;15.50;99.90
19941;DHT22;10132;50.864;5.176;2023-04-30T08:27:16;15.60;99.90
19941;DHT22;10132;50.864;5.176;2023-04-30T08:29:18;15.80;99.90
19941;DHT22;10132;50.864;5.176;2023-04-30T08:31:22;16.00;99.90
19941;DHT22;10132;50.864;5.176;2023-04-30T08:33:24;16.10;99.90
19941;DHT22;10132;50.864;5.176;2023-04-30T08:35:27;16.30;99.90
19941;DHT22;10132;50.864;5.176;2023-04-30T08:37:29;16.30;99.90
19941;DHT22;10132;50.864;5.176;2023-04-30T08:39:31;16.60;99.90
19941;DHT22;10132;50.864;5.176;2023-04-30T08:41:35;16.70;99.90
19941;DHT22;10132;50.864;5.176;2023-04-30T08:43:39;16.80;99.90
19941;DHT22;10132;50.864;5.176;2023-04-30T08:45:42;16.90;99.90
19941;DHT22;10132;50.864;5.176;2023-04-30T08:47:46;16.90;99.90
19941;DHT22;10132;50.864;5.176;2023-04-30T08:49:50;17.10;99.90
19941;DHT22;10132;50.864;5.176;2023-04-30T08:51:52;17.30;99.90
19941;DHT22;10132;50.864;5.176;2023-04-30T08:53:54;17.20;99.90
19941;DHT22;10132;50.864;5.176;2023-04-30T08:55:57;17.00;99.90
19941;DHT22;10132;50.864;5.176;2023-04-30T08:57:59;17.10;99.90
19941;DHT22;10132;50.864;5.176;2023-04-30T09:00:02;17.30;99.90
19941;DHT22;10132;50.864;5.176;2023-04-30T09:02:06;17.40;99.90
19941;DHT22;10132;50.864;5.176;2023-04-30T09:04:11;17.20;99.90
19941;DHT22;10132;50.864;5.176;2023-04-30T09:06:16;17.20;99.90
19941;DHT22;10132;50.864;5.176;2023-04-30T09:08:38;17.40;99.90
19941;DHT22;10132;50.864;5.176;2023-04-30T09:10:41;17.60;99.90
19941;DHT22;10132;50.864;5.176;2023-04-30T09:12:43;18.00;99.90
19941;DHT22;10132;50.864;5.176;2023-04-30T09:14:59;18.10;99.90
19941;DHT22;10132;50.864;5.176;2023-04-30T09:17:02;18.20;99.90
19941;DHT22;10132;50.864;5.176;2023-04-30T09:19:04;18.20;99.90
19941;DHT22;10132;50.864;5.176;2023-04-30T09:21:08;18.20;99.90
19941;DHT22;10132;50.864;5.176;2023-04-30T09:23:10;18.20;99.90
19941;DHT22;10132;50.864;5.176;2023-04-30T09:25:15;18.40;99.90
19941;DHT22;10132;50.864;5.176;2023-04-30T09:27:18;18.40;99.90
19941;DHT22;10132;50.864;5.176;2023-04-30T09:29:35;18.50;99.90
19941;DHT22;10132;50.864;5.176;2023-04-30T09:31:51;18.40;99.90
19941;DHT22;10132;50.864;5.176;2023-04-30T09:33:54;18.60;99.90
19941;DHT22;10132;50.864;5.176;2023-04-30T09:35:56;18.80;99.90
19941;DHT22;10132;50.864;5.176;2023-04-30T09:38:01;18.90;99.90
19941;DHT22;10132;50.864;5.176;2023-04-30T09:40:04;18.90;99.90
19941;DHT22;10132;50.864;5.176;2023-04-30T09:42:07;18.90;99.90
19941;DHT22;10132;50.864;5.176;2023-04-30T09:44:26;19.00;99.90
19941;DHT22;10132;50.864;5.176;2023-04-30T09:46:33;18.90;99.90
19941;DHT22;10132;50.864;5.176;2023-04-30T09:48:40;19.00;99.90
19941;DHT22;10132;50.864;5.176;2023-04-30T09:50:42;19.00;99.90
19941;DHT22;10132;50.864;5.176;2023-04-30T09:52:50;19.00;99.90
19941;DHT22;10132;50.864;5.176;2023-04-30T09:54:54;19.10;99.90
19941;DHT22;10132;50.864;5.176;2023-04-30T09:56:57;19.10;99.90
19941;DHT22;10132;50.864;5.176;2023-04-30T09:59:02;19.20;99.90
19941;DHT22;10132;50.864;5.176;2023-04-30T10:01:07;19.40;99.90
19941;DHT22;10132;50.864;5.176;2023-04-30T10:03:12;19.70;99.90
19941;DHT22;10132;50.864;5.176;2023-04-30T10:05:15;19.60;99.90
19941;DHT22;10132;50.864;5.176;2023-04-30T10:07:19;19.60;99.90
19941;DHT22;10132;50.864;5.176;2023-04-30T10:09:23;19.50;99.90
19941;DHT22;10132;50.864;5.176;2023-04-30T10:11:30;19.60;99.90
19941;DHT22;10132;50.864;5.176;2023-04-30T10:13:43;19.80;99.90
19941;DHT22;10132;50.864;5.176;2023-04-30T10:15:49;19.90;99.90
19941;DHT22;10132;50.864;5.176;2023-04-30T10:17:56;19.90;99.90
19941;DHT22;10132;50.864;5.176;2023-04-30T10:20:03;20.00;99.90
19941;DHT22;10132;50.864;5.176;2023-04-30T10:22:08;20.00;99.90
19941;DHT22;10132;50.864;5.176;2023-04-30T10:24:12;20.00;99.90
19941;DHT22;10132;50.864;5.176;2023-04-30T10:26:15;19.80;99.90
19941;DHT22;10132;50.864;5.176;2023-04-30T10:28:20;19.80;99.90
19941;DHT22;10132;50.864;5.176;2023-04-30T10:30:23;19.80;99.90
19941;DHT22;10132;50.864;5.176;2023-04-30T10:32:32;19.60;99.90
19941;DHT22;10132;50.864;5.176;2023-04-30T10:34:48;19.60;99.90
19941;DHT22;10132;50.864;5.176;2023-04-30T10:36:56;19.90;99.90
19941;DHT22;10132;50.864;5.176;2023-04-30T10:39:00;20.10;99.90
19941;DHT22;10132;50.864;5.176;2023-04-30T10:41:06;20.20;99.90
19941;DHT22;10132;50.864;5.176;2023-04-30T10:43:17;20.00;99.90
19941;DHT22;10132;50.864;5.176;2023-04-30T10:45:35;20.20;99.90
19941;DHT22;10132;50.864;5.176;2023-04-30T10:47:41;20.30;99.90
19941;DHT22;10132;50.864;5.176;2023-04-30T10:49:45;20.00;99.90
19941;DHT22;10132;50.864;5.176;2023-04-30T10:51:49;19.90;99.90
19941;DHT22;10132;50.864;5.176;2023-04-30T10:53:54;20.10;99.90
19941;DHT22;10132;50.864;5.176;2023-04-30T10:55:58;20.40;99.90
19941;DHT22;10132;50.864;5.176;2023-04-30T10:58:00;20.60;99.90
19941;DHT22;10132;50.864;5.176;2023-04-30T11:00:19;20.80;99.90
19941;DHT22;10132;50.864;5.176;2023-04-30T11:02:23;21.00;99.90
19941;DHT22;10132;50.864;5.176;2023-04-30T11:05:07;20.80;99.90
19941;DHT22;10132;50.864;5.176;2023-04-30T11:07:10;21.10;99.90
19941;DHT22;10132;50.864;5.176;2023-04-30T11:09:12;21.20;99.90
19941;DHT22;10132;50.864;5.176;2023-04-30T11:11:17;20.90;99.90
19941;DHT22;10132;50.864;5.176;2023-04-30T11:13:21;20.40;99.90
19941;DHT22;10132;50.864;5.176;2023-04-30T11:15:25;20.40;99.90
19941;DHT22;10132;50.864;5.176;2023-04-30T11:17:29;20.60;99.90
19941;DHT22;10132;50.864;5.176;2023-04-30T11:19:31;20.90;99.90
19941;DHT22;10132;50.864;5.176;2023-04-30T11:21:39;21.00;99.90
19941;DHT22;10132;50.864;5.176;2023-04-30T11:23:42;21.20;99.90
19941;DHT22;10132;50.864;5.176;2023-04-30T11:25:46;21.00;99.90
19941;DHT22;10132;50.864;5.176;2023-04-30T11:27:49;20.80;99.90
19941;DHT22;10132;50.864;5.176;2023-04-30T11:29:52;20.90;99.90
19941;DHT22;10132;50.864;5.176;2023-04-30T11:31:54;21.00;99.90
19941;DHT22;10132;50.864;5.176;2023-04-30T11:33:58;21.10;99.90
19941;DHT22;10132;50.864;5.176;2023-04-30T11:36:02;20.90;99.90
19941;DHT22;10132;50.864;5.176;2023-04-30T11:38:06;21.20;99.90
19941;DHT22;10132;50.864;5.176;2023-04-30T11:40:11;21.40;99.90
19941;DHT22;10132;50.864;5.176;2023-04-30T11:42:17;21.60;99.90
19941;DHT22;10132;50.864;5.176;2023-04-30T11:44:24;21.70;99.90
19941;DHT22;10132;50.864;5.176;2023-04-30T11:46:29;21.50;99.90
19941;DHT22;10132;50.864;5.176;2023-04-30T11:48:32;21.70;99.90
19941;DHT22;10132;50.864;5.176;2023-04-30T11:50:41;21.90;99.90
19941;DHT22;10132;50.864;5.176;2023-04-30T11:52:48;22.20;99.90
19941;DHT22;10132;50.864;5.176;2023-04-30T11:54:54;22.10;99.90
19941;DHT22;10132;50.864;5.176;2023-04-30T11:56:57;21.90;99.90
19941;DHT22;10132;50.864;5.176;2023-04-30T11:59:11;22.10;99.90
19941;DHT22;10132;50.864;5.176;2023-04-30T12:01:14;22.40;99.90
19941;DHT22;10132;50.864;5.176;2023-04-30T12:03:16;22.70;99.90
19941;DHT22;10132;50.864;5.176;2023-04-30T12:05:20;23.00;99.90
19941;DHT22;10132;50.864;5.176;2023-04-30T12:07:25;23.30;99.90
19941;DHT22;10132;50.864;5.176;2023-04-30T12:09:28;23.30;99.90
19941;DHT22;10132;50.864;5.176;2023-04-30T12:11:31;23.00;99.90
19941;DHT22;10132;50.864;5.176;2023-04-30T12:13:33;22.80;99.90
19941;DHT22;10132;50.864;5.176;2023-04-30T12:15:35;23.00;99.90
19941;DHT22;10132;50.864;5.176;2023-04-30T12:17:39;23.20;99.90
19941;DHT22;10132;50.864;5.176;2023-04-30T12:19:41;23.50;99.90
19941;DHT22;10132;50.864;5.176;2023-04-30T12:21:45;23.70;99.90
19941;DHT22;10132;50.864;5.176;2023-04-30T12:23:49;23.70;99.90
19941;DHT22;10132;50.864;5.176;2023-04-30T12:25:51;23.80;99.90
19941;DHT22;10132;50.864;5.176;2023-04-30T12:27:53;23.80;99.90
19941;DHT22;10132;50.864;5.176;2023-04-30T12:29:55;23.90;99.90
19941;DHT22;10132;50.864;5.176;2023-04-30T12:31:58;23.90;99.90
19941;DHT22;10132;50.864;5.176;2023-04-30T12:34:04;24.00;99.90
19941;DHT22;10132;50.864;5.176;2023-04-30T12:36:09;24.00;99.90
19941;DHT22;10132;50.864;5.176;2023-04-30T12:38:15;23.90;99.90
19941;DHT22;10132;50.864;5.176;2023-04-30T12:40:23;24.10;99.90
19941;DHT22;10132;50.864;5.176;2023-04-30T12:42:31;24.20;99.90
19941;DHT22;10132;50.864;5.176;2023-04-30T12:44:42;24.50;99.90
19941;DHT22;10132;50.864;5.176;2023-04-30T12:46:45;24.40;99.90
19941;DHT22;10132;50.864;5.176;2023-04-30T12:48:47;24.20;99.90
19941;DHT22;10132;50.864;5.176;2023-04-30T12:50:53;24.20;99.90
19941;DHT22;10132;50.864;5.176;2023-04-30T12:53:01;24.40;99.90
19941;DHT22;10132;50.864;5.176;2023-04-30T12:55:20;24.60;99.90
19941;DHT22;10132;50.864;5.176;2023-04-30T12:57:23;24.50;99.90
19941;DHT22;10132;50.864;5.176;2023-04-30T12:59:25;24.80;99.90
19941;DHT22;10132;50.864;5.176;2023-04-30T13:01:28;25.00;99.90
19941;DHT22;10132;50.864;5.176;2023-04-30T13:03:31;25.20;99.90
19941;DHT22;10132;50.864;5.176;2023-04-30T13:05:33;25.10;99.90
19941;DHT22;10132;50.864;5.176;2023-04-30T13:07:36;25.20;99.90
19941;DHT22;10132;50.864;5.176;2023-04-30T13:09:40;25.40;99.90